sensor_id;sensor_type;location;lat;lon;timestamp;P1;durP1;ratioP1;P2;durP2;ratioP2
4585;SDS011;2305;50.118;8.952;2023-12-28T00:00:55;8.93;;;4.50;;
4585;SDS011;2305;50.118;8.952;2023-12-28T00:03:25;8.57;;;3.60;;
4585;SDS011;2305;50.118;8.952;2023-12-28T00:05:55;7.90;;;4.87;;
4585;SDS011;2305;50.118;8.952;2023-12-28T00:08:24;10.23;;;4.60;;
4585;SDS011;2305;50.118;8.952;2023-12-28T00:10:53;12.10;;;4.90;;
4585;SDS011;2305;50.118;8.952;2023-12-28T00:13:21;7.40;;;4.83;;
4585;SDS011;2305;50.118;8.952;2023-12-28T00:15:49;11.53;;;4.50;;
4585;SDS011;2305;50.118;8.952;2023-12-28T00:18:17;11.03;;;4.97;;
4585;SDS011;2305;50.118;8.952;2023-12-28T00:20:50;9.07;;;4.83;;
4585;SDS011;2305;50.118;8.952;2023-12-28T00:23:18;8.30;;;4.47;;
4585;SDS011;2305;50.118;8.952;2023-12-28T00:25:49;8.23;;;4.73;;
4585;SDS011;2305;50.118;8.952;2023-12-28T00:28:17;8.93;;;5.10;;
4585;SDS011;2305;50.118;8.952;2023-12-28T00:30:48;13.90;;;4.90;;
4585;SDS011;2305;50.118;8.952;2023-12-28T00:33:17;9.13;;;5.93;;
4585;SDS011;2305;50.118;8.952;2023-12-28T00:35:45;11.40;;;5.90;;
4585;SDS011;2305;50.118;8.952;2023-12-28T00:38:14;18.30;;;7.73;;
4585;SDS011;2305;50.118;8.952;2023-12-28T00:40:45;10.33;;;5.90;;
4585;SDS011;2305;50.118;8.952;2023-12-28T00:43:16;9.00;;;4.87;;
4585;SDS011;2305;50.118;8.952;2023-12-28T00:45:44;8.87;;;4.67;;
4585;SDS011;2305;50.118;8.952;2023-12-28T00:48:13;9.73;;;5.20;;
4585;SDS011;2305;50.118;8.952;2023-12-28T00:50:42;8.73;;;4.47;;
4585;SDS011;2305;50.118;8.952;2023-12-28T00:53:10;11.00;;;4.40;;
4585;SDS011;2305;50.118;8.952;2023-12-28T00:55:38;7.57;;;3.50;;
4585;SDS011;2305;50.118;8.952;2023-12-28T00:58:06;5.87;;;4.00;;
4585;SDS011;2305;50.118;8.952;2023-12-28T01:00:36;9.43;;;4.13;;
4585;SDS011;2305;50.118;8.952;2023-12-28T01:03:04;8.93;;;3.67;;
4585;SDS011;2305;50.118;8.952;2023-12-28T01:05:32;8.23;;;4.33;;
4585;SDS011;2305;50.118;8.952;2023-12-28T01:08:00;8.80;;;4.70;;
4585;SDS011;2305;50.118;8.952;2023-12-28T01:10:29;6.00;;;4.23;;
4585;SDS011;2305;50.118;8.952;2023-12-28T01:12:59;5.57;;;3.37;;
4585;SDS011;2305;50.118;8.952;2023-12-28T01:15:29;9.50;;;4.93;;
4585;SDS011;2305;50.118;8.952;2023-12-28T01:17:59;7.10;;;3.50;;
4585;SDS011;2305;50.118;8.952;2023-12-28T01:20:27;11.53;;;4.50;;
4585;SDS011;2305;50.118;8.952;2023-12-28T01:22:58;6.30;;;3.57;;
4585;SDS011;2305;50.118;8.952;2023-12-28T01:25:26;6.53;;;3.90;;
4585;SDS011;2305;50.118;8.952;2023-12-28T01:27:55;4.23;;;3.10;;
4585;SDS011;2305;50.118;8.952;2023-12-28T01:30:26;8.93;;;3.40;;
4585;SDS011;2305;50.118;8.952;2023-12-28T01:32:54;4.20;;;2.73;;
4585;SDS011;2305;50.118;8.952;2023-12-28T01:35:25;5.40;;;3.40;;
4585;SDS011;2305;50.118;8.952;2023-12-28T01:37:53;6.40;;;3.57;;
4585;SDS011;2305;50.118;8.952;2023-12-28T01:40:21;6.70;;;3.33;;
4585;SDS011;2305;50.118;8.952;2023-12-28T01:42:52;7.43;;;3.30;;
4585;SDS011;2305;50.118;8.952;2023-12-28T01:45:20;7.50;;;3.70;;
4585;SDS011;2305;50.118;8.952;2023-12-28T01:47:48;5.57;;;3.53;;
4585;SDS011;2305;50.118;8.952;2023-12-28T01:50:20;4.73;;;3.27;;
4585;SDS011;2305;50.118;8.952;2023-12-28T01:52:50;5.10;;;3.50;;
4585;SDS011;2305;50.118;8.952;2023-12-28T01:55:22;5.60;;;2.90;;
4585;SDS011;2305;50.118;8.952;2023-12-28T01:57:53;8.43;;;4.00;;
4585;SDS011;2305;50.118;8.952;2023-12-28T02:00:23;6.53;;;2.80;;
4585;SDS011;2305;50.118;8.952;2023-12-28T02:02:52;4.93;;;2.87;;
4585;SDS011;2305;50.118;8.952;2023-12-28T02:05:20;8.13;;;2.73;;
4585;SDS011;2305;50.118;8.952;2023-12-28T02:07:51;3.57;;;2.20;;
4585;SDS011;2305;50.118;8.952;2023-12-28T02:10:19;7.50;;;2.63;;
4585;SDS011;2305;50.118;8.952;2023-12-28T02:12:48;9.60;;;2.90;;
4585;SDS011;2305;50.118;8.952;2023-12-28T02:15:21;2.70;;;2.10;;
4585;SDS011;2305;50.118;8.952;2023-12-28T02:17:51;5.30;;;2.90;;
4585;SDS011;2305;50.118;8.952;2023-12-28T02:20:28;3.33;;;2.10;;
4585;SDS011;2305;50.118;8.952;2023-12-28T02:22:58;3.80;;;2.03;;
4585;SDS011;2305;50.118;8.952;2023-12-28T02:25:29;4.20;;;2.10;;
4585;SDS011;2305;50.118;8.952;2023-12-28T02:27:58;4.17;;;1.93;;
4585;SDS011;2305;50.118;8.952;2023-12-28T02:30:27;4.43;;;2.30;;
4585;SDS011;2305;50.118;8.952;2023-12-28T02:33:02;3.80;;;2.33;;
4585;SDS011;2305;50.118;8.952;2023-12-28T02:35:39;2.80;;;2.03;;
4585;SDS011;2305;50.118;8.952;2023-12-28T02:38:11;2.63;;;2.20;;
4585;SDS011;2305;50.118;8.952;2023-12-28T02:40:43;4.13;;;2.47;;
4585;SDS011;2305;50.118;8.952;2023-12-28T02:43:12;5.33;;;2.33;;
4585;SDS011;2305;50.118;8.952;2023-12-28T02:45:40;5.60;;;2.30;;
4585;SDS011;2305;50.118;8.952;2023-12-28T02:48:09;3.90;;;2.13;;
4585;SDS011;2305;50.118;8.952;2023-12-28T02:50:39;6.70;;;2.87;;
4585;SDS011;2305;50.118;8.952;2023-12-28T02:53:07;7.30;;;3.07;;
4585;SDS011;2305;50.118;8.952;2023-12-28T02:55:37;4.87;;;2.13;;
4585;SDS011;2305;50.118;8.952;2023-12-28T02:58:09;4.50;;;1.93;;
4585;SDS011;2305;50.118;8.952;2023-12-28T03:00:37;2.90;;;2.20;;
4585;SDS011;2305;50.118;8.952;2023-12-28T03:03:06;3.80;;;2.37;;
4585;SDS011;2305;50.118;8.952;2023-12-28T03:05:35;4.17;;;2.80;;
4585;SDS011;2305;50.118;8.952;2023-12-28T03:08:05;2.43;;;1.63;;
4585;SDS011;2305;50.118;8.952;2023-12-28T03:10:35;4.37;;;2.87;;
4585;SDS011;2305;50.118;8.952;2023-12-28T03:13:05;3.77;;;2.37;;
4585;SDS011;2305;50.118;8.952;2023-12-28T03:15:35;3.90;;;2.47;;
4585;SDS011;2305;50.118;8.952;2023-12-28T03:18:05;3.03;;;2.17;;
4585;SDS011;2305;50.118;8.952;2023-12-28T03:20:35;5.20;;;2.50;;
4585;SDS011;2305;50.118;8.952;2023-12-28T03:23:08;3.67;;;2.30;;
4585;SDS011;2305;50.118;8.952;2023-12-28T03:25:42;4.20;;;2.50;;
4585;SDS011;2305;50.118;8.952;2023-12-28T03:28:13;4.77;;;2.77;;
4585;SDS011;2305;50.118;8.952;2023-12-28T03:30:42;3.07;;;2.20;;
4585;SDS011;2305;50.118;8.952;2023-12-28T03:33:11;4.13;;;2.10;;
4585;SDS011;2305;50.118;8.952;2023-12-28T03:35:40;4.63;;;2.47;;
4585;SDS011;2305;50.118;8.952;2023-12-28T03:38:08;5.97;;;2.70;;
4585;SDS011;2305;50.118;8.952;2023-12-28T03:40:37;3.57;;;2.27;;
4585;SDS011;2305;50.118;8.952;2023-12-28T03:43:05;3.00;;;1.97;;
4585;SDS011;2305;50.118;8.952;2023-12-28T03:45:33;4.90;;;2.20;;
4585;SDS011;2305;50.118;8.952;2023-12-28T03:48:04;3.60;;;2.20;;
4585;SDS011;2305;50.118;8.952;2023-12-28T03:50:36;6.37;;;2.40;;
4585;SDS011;2305;50.118;8.952;2023-12-28T03:53:06;3.40;;;2.37;;
4585;SDS011;2305;50.118;8.952;2023-12-28T03:55:36;2.83;;;2.20;;
4585;SDS011;2305;50.118;8.952;2023-12-28T03:58:04;3.77;;;2.20;;
4585;SDS011;2305;50.118;8.952;2023-12-28T04:00:35;5.10;;;2.73;;
4585;SDS011;2305;50.118;8.952;2023-12-28T04:03:11;5.60;;;2.43;;
4585;SDS011;2305;50.118;8.952;2023-12-28T04:05:39;4.63;;;2.00;;
4585;SDS011;2305;50.118;8.952;2023-12-28T04:08:10;4.60;;;2.33;;
4585;SDS011;2305;50.118;8.952;2023-12-28T04:10:38;14.03;;;3.10;;
4585;SDS011;2305;50.118;8.952;2023-12-28T04:13:07;3.30;;;2.40;;
4585;SDS011;2305;50.118;8.952;2023-12-28T04:15:35;6.57;;;2.90;;
4585;SDS011;2305;50.118;8.952;2023-12-28T04:18:04;4.27;;;2.23;;
4585;SDS011;2305;50.118;8.952;2023-12-28T04:20:33;3.90;;;2.60;;
4585;SDS011;2305;50.118;8.952;2023-12-28T04:23:04;3.97;;;2.57;;
4585;SDS011;2305;50.118;8.952;2023-12-28T04:25:32;4.63;;;2.30;;
4585;SDS011;2305;50.118;8.952;2023-12-28T04:28:00;3.97;;;2.23;;
4585;SDS011;2305;50.118;8.952;2023-12-28T04:30:29;4.90;;;2.00;;
4585;SDS011;2305;50.118;8.952;2023-12-28T04:32:57;2.50;;;1.63;;
4585;SDS011;2305;50.118;8.952;2023-12-28T04:35:27;5.80;;;2.23;;
4585;SDS011;2305;50.118;8.952;2023-12-28T04:37:58;3.30;;;1.97;;
4585;SDS011;2305;50.118;8.952;2023-12-28T04:40:26;5.00;;;2.37;;
4585;SDS011;2305;50.118;8.952;2023-12-28T04:42:56;12.40;;;2.27;;
4585;SDS011;2305;50.118;8.952;2023-12-28T04:45:24;5.40;;;1.90;;
4585;SDS011;2305;50.118;8.952;2023-12-28T04:47:52;3.43;;;2.27;;
4585;SDS011;2305;50.118;8.952;2023-12-28T04:50:21;2.83;;;1.80;;
4585;SDS011;2305;50.118;8.952;2023-12-28T04:52:52;3.00;;;2.10;;
4585;SDS011;2305;50.118;8.952;2023-12-28T04:55:22;4.77;;;1.90;;
4585;SDS011;2305;50.118;8.952;2023-12-28T04:57:51;3.00;;;2.13;;
4585;SDS011;2305;50.118;8.952;2023-12-28T05:00:19;5.73;;;1.93;;
4585;SDS011;2305;50.118;8.952;2023-12-28T05:02:52;3.20;;;2.07;;
4585;SDS011;2305;50.118;8.952;2023-12-28T05:05:21;3.10;;;2.10;;
4585;SDS011;2305;50.118;8.952;2023-12-28T05:07:50;2.43;;;1.77;;
4585;SDS011;2305;50.118;8.952;2023-12-28T05:10:18;4.00;;;2.30;;
4585;SDS011;2305;50.118;8.952;2023-12-28T05:12:50;2.90;;;1.93;;
4585;SDS011;2305;50.118;8.952;2023-12-28T05:15:27;2.97;;;2.00;;
4585;SDS011;2305;50.118;8.952;2023-12-28T05:17:56;3.00;;;1.90;;
4585;SDS011;2305;50.118;8.952;2023-12-28T05:20:27;3.20;;;2.13;;
4585;SDS011;2305;50.118;8.952;2023-12-28T05:22:55;4.53;;;2.23;;
4585;SDS011;2305;50.118;8.952;2023-12-28T05:25:25;2.60;;;1.97;;
4585;SDS011;2305;50.118;8.952;2023-12-28T05:27:55;3.50;;;2.03;;
4585;SDS011;2305;50.118;8.952;2023-12-28T05:30:24;3.10;;;2.10;;
4585;SDS011;2305;50.118;8.952;2023-12-28T05:32:52;2.37;;;1.90;;
4585;SDS011;2305;50.118;8.952;2023-12-28T05:35:21;2.60;;;1.73;;
4585;SDS011;2305;50.118;8.952;2023-12-28T05:37:51;3.40;;;2.00;;
4585;SDS011;2305;50.118;8.952;2023-12-28T05:40:24;2.10;;;1.57;;
4585;SDS011;2305;50.118;8.952;2023-12-28T05:42:57;7.13;;;2.40;;
4585;SDS011;2305;50.118;8.952;2023-12-28T05:45:25;4.40;;;2.40;;
4585;SDS011;2305;50.118;8.952;2023-12-28T05:47:53;2.87;;;1.60;;
4585;SDS011;2305;50.118;8.952;2023-12-28T05:50:21;3.20;;;2.00;;
4585;SDS011;2305;50.118;8.952;2023-12-28T05:52:49;4.73;;;2.10;;
4585;SDS011;2305;50.118;8.952;2023-12-28T05:55:17;4.17;;;2.33;;
4585;SDS011;2305;50.118;8.952;2023-12-28T05:57:45;3.50;;;2.17;;
4585;SDS011;2305;50.118;8.952;2023-12-28T06:00:15;4.10;;;2.30;;
4585;SDS011;2305;50.118;8.952;2023-12-28T06:02:44;3.20;;;2.40;;
4585;SDS011;2305;50.118;8.952;2023-12-28T06:05:12;3.83;;;2.50;;
4585;SDS011;2305;50.118;8.952;2023-12-28T06:07:41;3.07;;;2.30;;
4585;SDS011;2305;50.118;8.952;2023-12-28T06:10:11;8.43;;;2.50;;
4585;SDS011;2305;50.118;8.952;2023-12-28T06:12:39;2.70;;;1.73;;
4585;SDS011;2305;50.118;8.952;2023-12-28T06:15:07;2.87;;;2.10;;
4585;SDS011;2305;50.118;8.952;2023-12-28T06:17:37;4.80;;;3.00;;
4585;SDS011;2305;50.118;8.952;2023-12-28T06:20:06;4.50;;;2.33;;
4585;SDS011;2305;50.118;8.952;2023-12-28T06:22:37;2.83;;;1.87;;
4585;SDS011;2305;50.118;8.952;2023-12-28T06:25:05;3.33;;;1.90;;
4585;SDS011;2305;50.118;8.952;2023-12-28T06:27:34;4.27;;;2.10;;
4585;SDS011;2305;50.118;8.952;2023-12-28T06:30:05;2.20;;;1.70;;
4585;SDS011;2305;50.118;8.952;2023-12-28T06:32:34;3.57;;;1.83;;
4585;SDS011;2305;50.118;8.952;2023-12-28T06:35:04;2.97;;;1.80;;
4585;SDS011;2305;50.118;8.952;2023-12-28T06:37:34;3.97;;;2.40;;
4585;SDS011;2305;50.118;8.952;2023-12-28T06:40:02;3.47;;;1.90;;
4585;SDS011;2305;50.118;8.952;2023-12-28T06:42:31;3.77;;;2.00;;
4585;SDS011;2305;50.118;8.952;2023-12-28T06:45:00;11.40;;;1.87;;
4585;SDS011;2305;50.118;8.952;2023-12-28T06:47:33;2.93;;;1.83;;
4585;SDS011;2305;50.118;8.952;2023-12-28T06:50:03;3.60;;;1.73;;
4585;SDS011;2305;50.118;8.952;2023-12-28T06:52:32;3.50;;;1.63;;
4585;SDS011;2305;50.118;8.952;2023-12-28T06:55:04;3.50;;;1.53;;
4585;SDS011;2305;50.118;8.952;2023-12-28T06:57:35;2.30;;;1.47;;
4585;SDS011;2305;50.118;8.952;2023-12-28T07:00:07;3.70;;;2.30;;
4585;SDS011;2305;50.118;8.952;2023-12-28T07:02:37;3.67;;;1.77;;
4585;SDS011;2305;50.118;8.952;2023-12-28T07:05:07;1.77;;;1.30;;
4585;SDS011;2305;50.118;8.952;2023-12-28T07:07:35;2.50;;;1.57;;
4585;SDS011;2305;50.118;8.952;2023-12-28T07:10:04;1.50;;;1.23;;
4585;SDS011;2305;50.118;8.952;2023-12-28T07:12:33;1.93;;;1.47;;
4585;SDS011;2305;50.118;8.952;2023-12-28T07:15:00;2.07;;;1.53;;
4585;SDS011;2305;50.118;8.952;2023-12-28T07:17:31;5.10;;;2.10;;
4585;SDS011;2305;50.118;8.952;2023-12-28T07:19:59;4.30;;;2.77;;
4585;SDS011;2305;50.118;8.952;2023-12-28T07:22:29;2.23;;;1.67;;
4585;SDS011;2305;50.118;8.952;2023-12-28T07:24:57;2.47;;;1.87;;
4585;SDS011;2305;50.118;8.952;2023-12-28T07:27:28;2.60;;;1.50;;
4585;SDS011;2305;50.118;8.952;2023-12-28T07:29:56;3.00;;;1.93;;
4585;SDS011;2305;50.118;8.952;2023-12-28T07:32:26;2.33;;;1.50;;
4585;SDS011;2305;50.118;8.952;2023-12-28T07:34:56;4.10;;;1.70;;
4585;SDS011;2305;50.118;8.952;2023-12-28T07:37:28;3.87;;;1.70;;
4585;SDS011;2305;50.118;8.952;2023-12-28T07:40:00;5.20;;;1.93;;
4585;SDS011;2305;50.118;8.952;2023-12-28T07:42:30;2.50;;;1.87;;
4585;SDS011;2305;50.118;8.952;2023-12-28T07:44:58;1.97;;;1.77;;
4585;SDS011;2305;50.118;8.952;2023-12-28T07:47:26;3.57;;;1.70;;
4585;SDS011;2305;50.118;8.952;2023-12-28T07:49:54;1.73;;;1.40;;
4585;SDS011;2305;50.118;8.952;2023-12-28T07:52:23;2.00;;;1.80;;
4585;SDS011;2305;50.118;8.952;2023-12-28T07:54:53;3.07;;;1.63;;
4585;SDS011;2305;50.118;8.952;2023-12-28T07:57:21;3.80;;;1.97;;
4585;SDS011;2305;50.118;8.952;2023-12-28T07:59:49;2.00;;;1.60;;
4585;SDS011;2305;50.118;8.952;2023-12-28T08:02:17;7.20;;;1.90;;
4585;SDS011;2305;50.118;8.952;2023-12-28T08:04:47;3.00;;;1.83;;
4585;SDS011;2305;50.118;8.952;2023-12-28T08:07:16;2.90;;;2.00;;
4585;SDS011;2305;50.118;8.952;2023-12-28T08:09:44;4.03;;;1.97;;
4585;SDS011;2305;50.118;8.952;2023-12-28T08:12:13;3.77;;;2.10;;
4585;SDS011;2305;50.118;8.952;2023-12-28T08:14:42;2.87;;;1.80;;
4585;SDS011;2305;50.118;8.952;2023-12-28T08:17:11;3.07;;;1.90;;
4585;SDS011;2305;50.118;8.952;2023-12-28T08:19:42;4.13;;;2.27;;
4585;SDS011;2305;50.118;8.952;2023-12-28T08:22:13;3.40;;;1.97;;
4585;SDS011;2305;50.118;8.952;2023-12-28T08:24:42;3.07;;;1.90;;
4585;SDS011;2305;50.118;8.952;2023-12-28T08:27:10;3.37;;;2.00;;
4585;SDS011;2305;50.118;8.952;2023-12-28T08:29:41;2.33;;;1.60;;
4585;SDS011;2305;50.118;8.952;2023-12-28T08:32:09;2.90;;;1.60;;
4585;SDS011;2305;50.118;8.952;2023-12-28T08:34:38;5.00;;;2.00;;
4585;SDS011;2305;50.118;8.952;2023-12-28T08:37:06;2.33;;;1.50;;
4585;SDS011;2305;50.118;8.952;2023-12-28T08:39:35;2.30;;;1.50;;
4585;SDS011;2305;50.118;8.952;2023-12-28T08:42:05;1.93;;;1.53;;
4585;SDS011;2305;50.118;8.952;2023-12-28T08:44:34;2.40;;;1.63;;
4585;SDS011;2305;50.118;8.952;2023-12-28T08:47:05;2.97;;;1.73;;
4585;SDS011;2305;50.118;8.952;2023-12-28T08:49:33;3.10;;;2.10;;
4585;SDS011;2305;50.118;8.952;2023-12-28T08:52:01;3.20;;;1.77;;
4585;SDS011;2305;50.118;8.952;2023-12-28T08:54:31;3.40;;;1.97;;
4585;SDS011;2305;50.118;8.952;2023-12-28T08:57:02;2.47;;;1.90;;
4585;SDS011;2305;50.118;8.952;2023-12-28T08:59:30;3.83;;;1.60;;
4585;SDS011;2305;50.118;8.952;2023-12-28T09:01:58;2.97;;;1.43;;
4585;SDS011;2305;50.118;8.952;2023-12-28T09:04:29;4.23;;;1.70;;
4585;SDS011;2305;50.118;8.952;2023-12-28T09:06:58;2.43;;;1.80;;
4585;SDS011;2305;50.118;8.952;2023-12-28T09:09:26;4.33;;;1.80;;
4585;SDS011;2305;50.118;8.952;2023-12-28T09:11:54;2.47;;;1.80;;
4585;SDS011;2305;50.118;8.952;2023-12-28T09:14:22;5.73;;;1.73;;
4585;SDS011;2305;50.118;8.952;2023-12-28T09:16:51;4.60;;;1.70;;
4585;SDS011;2305;50.118;8.952;2023-12-28T09:19:18;3.33;;;1.93;;
4585;SDS011;2305;50.118;8.952;2023-12-28T09:21:50;3.87;;;1.73;;
4585;SDS011;2305;50.118;8.952;2023-12-28T09:24:19;4.20;;;1.60;;
4585;SDS011;2305;50.118;8.952;2023-12-28T09:26:50;3.43;;;1.97;;
4585;SDS011;2305;50.118;8.952;2023-12-28T09:29:19;3.43;;;1.87;;
4585;SDS011;2305;50.118;8.952;2023-12-28T09:31:47;3.97;;;2.20;;
4585;SDS011;2305;50.118;8.952;2023-12-28T09:34:15;3.53;;;1.77;;
4585;SDS011;2305;50.118;8.952;2023-12-28T09:36:44;5.60;;;1.97;;
4585;SDS011;2305;50.118;8.952;2023-12-28T09:39:13;5.43;;;1.93;;
4585;SDS011;2305;50.118;8.952;2023-12-28T09:41:43;6.20;;;1.60;;
4585;SDS011;2305;50.118;8.952;2023-12-28T09:44:17;3.47;;;1.70;;
4585;SDS011;2305;50.118;8.952;2023-12-28T09:46:46;2.67;;;1.90;;
4585;SDS011;2305;50.118;8.952;2023-12-28T09:49:19;3.73;;;1.50;;
4585;SDS011;2305;50.118;8.952;2023-12-28T09:51:50;4.57;;;2.03;;
4585;SDS011;2305;50.118;8.952;2023-12-28T09:54:19;4.03;;;1.73;;
4585;SDS011;2305;50.118;8.952;2023-12-28T09:56:47;3.00;;;1.60;;
4585;SDS011;2305;50.118;8.952;2023-12-28T09:59:15;4.40;;;1.67;;
4585;SDS011;2305;50.118;8.952;2023-12-28T10:01:46;4.80;;;1.97;;
4585;SDS011;2305;50.118;8.952;2023-12-28T10:04:16;2.53;;;1.67;;
4585;SDS011;2305;50.118;8.952;2023-12-28T10:06:45;3.27;;;1.70;;
4585;SDS011;2305;50.118;8.952;2023-12-28T10:09:13;2.13;;;1.80;;
4585;SDS011;2305;50.118;8.952;2023-12-28T10:11:42;2.50;;;1.53;;
4585;SDS011;2305;50.118;8.952;2023-12-28T10:14:10;2.70;;;1.83;;
4585;SDS011;2305;50.118;8.952;2023-12-28T10:16:41;3.67;;;1.70;;
4585;SDS011;2305;50.118;8.952;2023-12-28T10:19:12;3.23;;;1.60;;
4585;SDS011;2305;50.118;8.952;2023-12-28T10:21:40;7.47;;;2.80;;
4585;SDS011;2305;50.118;8.952;2023-12-28T10:24:10;2.23;;;1.60;;
4585;SDS011;2305;50.118;8.952;2023-12-28T10:26:39;2.23;;;1.50;;
4585;SDS011;2305;50.118;8.952;2023-12-28T10:29:08;3.47;;;1.80;;
4585;SDS011;2305;50.118;8.952;2023-12-28T10:31:37;7.30;;;1.57;;
4585;SDS011;2305;50.118;8.952;2023-12-28T10:34:06;4.87;;;1.93;;
4585;SDS011;2305;50.118;8.952;2023-12-28T10:36:39;4.10;;;1.93;;
4585;SDS011;2305;50.118;8.952;2023-12-28T10:42:04;4.30;;;2.00;;
4585;SDS011;2305;50.118;8.952;2023-12-28T10:44:38;3.27;;;1.60;;
4585;SDS011;2305;50.118;8.952;2023-12-28T10:47:15;2.33;;;1.60;;
4585;SDS011;2305;50.118;8.952;2023-12-28T10:49:45;7.53;;;2.57;;
4585;SDS011;2305;50.118;8.952;2023-12-28T10:52:16;2.60;;;1.60;;
4585;SDS011;2305;50.118;8.952;2023-12-28T10:54:50;3.40;;;1.50;;
4585;SDS011;2305;50.118;8.952;2023-12-28T10:57:26;2.27;;;1.77;;
4585;SDS011;2305;50.118;8.952;2023-12-28T11:00:04;2.27;;;1.50;;
4585;SDS011;2305;50.118;8.952;2023-12-28T11:02:38;4.40;;;1.93;;
4585;SDS011;2305;50.118;8.952;2023-12-28T11:05:09;4.47;;;1.60;;
4585;SDS011;2305;50.118;8.952;2023-12-28T11:07:41;3.70;;;1.70;;
4585;SDS011;2305;50.118;8.952;2023-12-28T11:10:11;2.03;;;1.60;;
4585;SDS011;2305;50.118;8.952;2023-12-28T11:12:43;4.33;;;1.63;;
4585;SDS011;2305;50.118;8.952;2023-12-28T11:15:15;4.53;;;1.90;;
4585;SDS011;2305;50.118;8.952;2023-12-28T11:17:43;6.23;;;2.10;;
4585;SDS011;2305;50.118;8.952;2023-12-28T11:20:13;3.77;;;2.07;;
4585;SDS011;2305;50.118;8.952;2023-12-28T11:22:41;4.20;;;1.80;;
4585;SDS011;2305;50.118;8.952;2023-12-28T11:25:15;1.83;;;1.40;;
4585;SDS011;2305;50.118;8.952;2023-12-28T11:27:45;2.47;;;1.50;;
4585;SDS011;2305;50.118;8.952;2023-12-28T11:30:15;3.90;;;1.70;;
4585;SDS011;2305;50.118;8.952;2023-12-28T11:32:43;5.50;;;1.73;;
4585;SDS011;2305;50.118;8.952;2023-12-28T11:35:14;2.73;;;2.00;;
4585;SDS011;2305;50.118;8.952;2023-12-28T11:37:44;2.77;;;1.70;;
4585;SDS011;2305;50.118;8.952;2023-12-28T11:40:16;4.97;;;2.10;;
4585;SDS011;2305;50.118;8.952;2023-12-28T11:42:49;5.90;;;2.23;;
4585;SDS011;2305;50.118;8.952;2023-12-28T11:45:21;3.23;;;1.90;;
4585;SDS011;2305;50.118;8.952;2023-12-28T11:48:01;5.93;;;1.97;;
4585;SDS011;2305;50.118;8.952;2023-12-28T11:50:30;8.13;;;1.67;;
4585;SDS011;2305;50.118;8.952;2023-12-28T11:52:59;6.90;;;2.00;;
4585;SDS011;2305;50.118;8.952;2023-12-28T11:55:29;6.90;;;2.07;;
4585;SDS011;2305;50.118;8.952;2023-12-28T11:57:57;7.40;;;1.87;;
4585;SDS011;2305;50.118;8.952;2023-12-28T12:00:28;1.93;;;1.43;;
4585;SDS011;2305;50.118;8.952;2023-12-28T12:02:56;3.83;;;1.63;;
4585;SDS011;2305;50.118;8.952;2023-12-28T12:05:25;8.20;;;1.67;;
4585;SDS011;2305;50.118;8.952;2023-12-28T12:07:54;7.33;;;1.97;;
4585;SDS011;2305;50.118;8.952;2023-12-28T12:10:23;3.67;;;1.50;;
4585;SDS011;2305;50.118;8.952;2023-12-28T12:12:52;4.70;;;1.83;;
4585;SDS011;2305;50.118;8.952;2023-12-28T12:15:20;2.77;;;1.33;;
4585;SDS011;2305;50.118;8.952;2023-12-28T12:17:50;12.13;;;1.60;;
4585;SDS011;2305;50.118;8.952;2023-12-28T12:20:18;3.40;;;1.70;;
4585;SDS011;2305;50.118;8.952;2023-12-28T12:22:49;4.33;;;2.00;;
4585;SDS011;2305;50.118;8.952;2023-12-28T12:25:17;4.90;;;1.90;;
4585;SDS011;2305;50.118;8.952;2023-12-28T12:27:46;6.00;;;2.47;;
4585;SDS011;2305;50.118;8.952;2023-12-28T12:30:14;3.70;;;2.03;;
4585;SDS011;2305;50.118;8.952;2023-12-28T12:32:42;4.97;;;1.90;;
4585;SDS011;2305;50.118;8.952;2023-12-28T12:35:13;2.80;;;1.30;;
4585;SDS011;2305;50.118;8.952;2023-12-28T12:37:50;2.30;;;1.80;;
4585;SDS011;2305;50.118;8.952;2023-12-28T12:40:20;2.40;;;1.43;;
4585;SDS011;2305;50.118;8.952;2023-12-28T12:42:52;5.00;;;1.57;;
4585;SDS011;2305;50.118;8.952;2023-12-28T12:45:21;3.30;;;1.70;;
4585;SDS011;2305;50.118;8.952;2023-12-28T12:47:52;6.17;;;2.23;;
4585;SDS011;2305;50.118;8.952;2023-12-28T12:50:21;5.10;;;2.37;;
4585;SDS011;2305;50.118;8.952;2023-12-28T12:52:49;2.90;;;1.80;;
4585;SDS011;2305;50.118;8.952;2023-12-28T12:55:17;3.40;;;1.80;;
4585;SDS011;2305;50.118;8.952;2023-12-28T12:57:45;2.03;;;1.60;;
4585;SDS011;2305;50.118;8.952;2023-12-28T13:00:17;5.43;;;2.03;;
4585;SDS011;2305;50.118;8.952;2023-12-28T13:02:50;4.90;;;2.20;;
4585;SDS011;2305;50.118;8.952;2023-12-28T13:05:22;3.30;;;1.83;;
4585;SDS011;2305;50.118;8.952;2023-12-28T13:07:52;3.33;;;1.67;;
4585;SDS011;2305;50.118;8.952;2023-12-28T13:10:23;7.43;;;2.00;;
4585;SDS011;2305;50.118;8.952;2023-12-28T13:12:51;3.80;;;2.10;;
4585;SDS011;2305;50.118;8.952;2023-12-28T13:15:22;3.03;;;1.80;;
4585;SDS011;2305;50.118;8.952;2023-12-28T13:17:50;2.93;;;1.80;;
4585;SDS011;2305;50.118;8.952;2023-12-28T13:20:23;6.27;;;2.30;;
4585;SDS011;2305;50.118;8.952;2023-12-28T13:22:51;3.80;;;1.53;;
4585;SDS011;2305;50.118;8.952;2023-12-28T13:25:20;3.57;;;2.27;;
4585;SDS011;2305;50.118;8.952;2023-12-28T13:27:48;3.40;;;1.90;;
4585;SDS011;2305;50.118;8.952;2023-12-28T13:30:16;3.33;;;2.07;;
4585;SDS011;2305;50.118;8.952;2023-12-28T13:32:48;4.83;;;2.00;;
4585;SDS011;2305;50.118;8.952;2023-12-28T13:35:19;3.33;;;2.00;;
4585;SDS011;2305;50.118;8.952;2023-12-28T13:37:50;3.70;;;1.60;;
4585;SDS011;2305;50.118;8.952;2023-12-28T13:40:18;2.13;;;1.33;;
4585;SDS011;2305;50.118;8.952;2023-12-28T13:42:46;4.50;;;1.80;;
4585;SDS011;2305;50.118;8.952;2023-12-28T13:45:15;4.37;;;1.90;;
4585;SDS011;2305;50.118;8.952;2023-12-28T13:47:47;4.83;;;2.33;;
4585;SDS011;2305;50.118;8.952;2023-12-28T13:50:15;5.17;;;2.20;;
4585;SDS011;2305;50.118;8.952;2023-12-28T13:52:43;4.93;;;2.23;;
4585;SDS011;2305;50.118;8.952;2023-12-28T13:55:13;2.83;;;1.90;;
4585;SDS011;2305;50.118;8.952;2023-12-28T13:57:43;2.53;;;1.60;;
4585;SDS011;2305;50.118;8.952;2023-12-28T14:00:12;3.27;;;2.00;;
4585;SDS011;2305;50.118;8.952;2023-12-28T14:02:41;3.33;;;1.63;;
4585;SDS011;2305;50.118;8.952;2023-12-28T14:05:09;4.00;;;1.67;;
4585;SDS011;2305;50.118;8.952;2023-12-28T14:07:37;4.13;;;2.20;;
4585;SDS011;2305;50.118;8.952;2023-12-28T14:10:05;5.77;;;2.30;;
4585;SDS011;2305;50.118;8.952;2023-12-28T14:12:38;3.67;;;1.77;;
4585;SDS011;2305;50.118;8.952;2023-12-28T14:15:06;5.30;;;1.90;;
4585;SDS011;2305;50.118;8.952;2023-12-28T14:17:36;4.40;;;1.60;;
4585;SDS011;2305;50.118;8.952;2023-12-28T14:20:04;3.60;;;1.67;;
4585;SDS011;2305;50.118;8.952;2023-12-28T14:22:35;3.57;;;1.77;;
4585;SDS011;2305;50.118;8.952;2023-12-28T14:25:05;2.77;;;1.60;;
4585;SDS011;2305;50.118;8.952;2023-12-28T14:27:34;2.43;;;1.47;;
4585;SDS011;2305;50.118;8.952;2023-12-28T14:30:05;2.63;;;1.70;;
4585;SDS011;2305;50.118;8.952;2023-12-28T14:32:36;3.60;;;1.50;;
4585;SDS011;2305;50.118;8.952;2023-12-28T14:35:05;2.87;;;1.40;;
4585;SDS011;2305;50.118;8.952;2023-12-28T14:37:34;2.40;;;1.80;;
4585;SDS011;2305;50.118;8.952;2023-12-28T14:40:02;2.63;;;1.50;;
4585;SDS011;2305;50.118;8.952;2023-12-28T14:42:36;2.20;;;1.40;;
4585;SDS011;2305;50.118;8.952;2023-12-28T14:45:09;3.63;;;2.37;;
4585;SDS011;2305;50.118;8.952;2023-12-28T14:47:37;2.13;;;1.47;;
4585;SDS011;2305;50.118;8.952;2023-12-28T14:50:05;2.07;;;1.47;;
4585;SDS011;2305;50.118;8.952;2023-12-28T14:52:34;2.80;;;1.50;;
4585;SDS011;2305;50.118;8.952;2023-12-28T14:55:06;2.50;;;1.50;;
4585;SDS011;2305;50.118;8.952;2023-12-28T14:57:35;3.57;;;1.23;;
4585;SDS011;2305;50.118;8.952;2023-12-28T15:00:05;2.97;;;1.33;;
4585;SDS011;2305;50.118;8.952;2023-12-28T15:02:38;2.27;;;1.40;;
4585;SDS011;2305;50.118;8.952;2023-12-28T15:05:09;2.97;;;1.47;;
4585;SDS011;2305;50.118;8.952;2023-12-28T15:07:39;2.47;;;1.43;;
4585;SDS011;2305;50.118;8.952;2023-12-28T15:10:08;7.00;;;1.40;;
4585;SDS011;2305;50.118;8.952;2023-12-28T15:12:40;1.40;;;1.30;;
4585;SDS011;2305;50.118;8.952;2023-12-28T15:15:10;2.60;;;1.30;;
4585;SDS011;2305;50.118;8.952;2023-12-28T15:17:40;5.47;;;1.60;;
4585;SDS011;2305;50.118;8.952;2023-12-28T15:20:10;1.80;;;1.47;;
4585;SDS011;2305;50.118;8.952;2023-12-28T15:22:39;1.97;;;1.40;;
4585;SDS011;2305;50.118;8.952;2023-12-28T15:25:08;2.30;;;1.63;;
4585;SDS011;2305;50.118;8.952;2023-12-28T15:27:36;1.90;;;1.40;;
4585;SDS011;2305;50.118;8.952;2023-12-28T15:30:07;2.00;;;1.37;;
4585;SDS011;2305;50.118;8.952;2023-12-28T15:32:36;3.77;;;1.57;;